sensor_id;sensor_type;location;lat;lon;timestamp;pressure;altitude;pressure_sealevel;temperature;humidity
34243;BME280;20504;43.214;27.920;2023-04-10T00:01:36;103016.50;;;11.20;100.00
34243;BME280;20504;43.214;27.920;2023-04-10T00:04:03;103012.00;;;11.22;100.00
34243;BME280;20504;43.214;27.920;2023-04-10T00:06:30;103000.53;;;11.21;100.00
34243;BME280;20504;43.214;27.920;2023-04-10T00:08:56;103003.25;;;11.18;100.00
34243;BME280;20504;43.214;27.920;2023-04-10T00:11:23;103019.25;;;11.17;100.00
34243;BME280;20504;43.214;27.920;2023-04-10T00:13:54;103024.47;;;11.20;100.00
34243;BME280;20504;43.214;27.920;2023-04-10T00:18:52;103015.44;;;10.93;100.00
34243;BME280;20504;43.214;27.920;2023-04-10T00:21:17;103036.69;;;10.93;100.00
34243;BME280;20504;43.214;27.920;2023-04-10T00:23:42;103062.28;;;10.96;100.00
34243;BME280;20504;43.214;27.920;2023-04-10T00:26:08;103079.25;;;10.90;100.00
34243;BME280;20504;43.214;27.920;2023-04-10T00:28:33;103106.56;;;10.95;100.00
34243;BME280;20504;43.214;27.920;2023-04-10T00:31:03;103106.00;;;10.82;100.00
34243;BME280;20504;43.214;27.920;2023-04-10T00:33:29;103100.19;;;10.67;100.00
34243;BME280;20504;43.214;27.920;2023-04-10T00:35:54;103153.56;;;10.91;100.00
34243;BME280;20504;43.214;27.920;2023-04-10T00:38:20;103162.47;;;10.89;100.00
34243;BME280;20504;43.214;27.920;2023-04-10T00:40:46;103159.97;;;10.83;100.00
34243;BME280;20504;43.214;27.920;2023-04-10T00:43:12;103186.81;;;10.71;100.00
34243;BME280;20504;43.214;27.920;2023-04-10T00:45:38;103200.16;;;10.68;100.00
34243;BME280;20504;43.214;27.920;2023-04-10T00:48:04;103234.84;;;10.58;100.00
34243;BME280;20504;43.214;27.920;2023-04-10T00:50:29;103259.28;;;10.74;100.00
34243;BME280;20504;43.214;27.920;2023-04-10T00:52:55;103318.97;;;10.97;100.00
34243;BME280;20504;43.214;27.920;2023-04-10T00:55:22;103337.03;;;10.81;100.00
34243;BME280;20504;43.214;27.920;2023-04-10T00:57:47;103332.03;;;10.66;100.00
34243;BME280;20504;43.214;27.920;2023-04-10T01:00:14;103366.66;;;10.59;100.00
34243;BME280;20504;43.214;27.920;2023-04-10T01:02:40;103388.38;;;10.81;100.00
34243;BME280;20504;43.214;27.920;2023-04-10T01:05:07;103395.56;;;10.75;100.00
34243;BME280;20504;43.214;27.920;2023-04-10T01:10:49;103443.41;;;10.72;100.00
34243;BME280;20504;43.214;27.920;2023-04-10T01:13:47;103457.47;;;10.77;100.00
34243;BME280;20504;43.214;27.920;2023-04-10T01:16:15;103456.69;;;10.72;100.00
34243;BME280;20504;43.214;27.920;2023-04-10T01:18:59;103452.38;;;10.66;100.00
34243;BME280;20504;43.214;27.920;2023-04-10T01:21:30;103429.44;;;10.62;100.00
34243;BME280;20504;43.214;27.920;2023-04-10T01:24:17;103446.94;;;10.72;100.00
34243;BME280;20504;43.214;27.920;2023-04-10T01:29:40;103391.09;;;10.77;100.00
34243;BME280;20504;43.214;27.920;2023-04-10T01:32:12;103363.19;;;11.01;100.00
34243;BME280;20504;43.214;27.920;2023-04-10T01:34:41;103342.03;;;10.95;100.00
34243;BME280;20504;43.214;27.920;2023-04-10T01:37:12;103264.91;;;10.59;100.00
34243;BME280;20504;43.214;27.920;2023-04-10T01:39:40;103278.66;;;10.78;100.00
34243;BME280;20504;43.214;27.920;2023-04-10T01:42:10;103258.03;;;10.90;100.00
34243;BME280;20504;43.214;27.920;2023-04-10T01:44:40;103250.03;;;10.92;100.00
34243;BME280;20504;43.214;27.920;2023-04-10T01:47:07;103225.50;;;10.82;100.00
34243;BME280;20504;43.214;27.920;2023-04-10T01:49:42;103216.44;;;10.91;100.00
34243;BME280;20504;43.214;27.920;2023-04-10T01:52:10;103214.91;;;10.81;100.00
34243;BME280;20504;43.214;27.920;2023-04-10T01:54:41;103213.13;;;10.81;100.00
34243;BME280;20504;43.214;27.920;2023-04-10T01:57:22;103207.91;;;10.77;100.00
34243;BME280;20504;43.214;27.920;2023-04-10T02:00:05;103214.13;;;10.76;100.00
34243;BME280;20504;43.214;27.920;2023-04-10T02:02:31;103224.66;;;10.80;100.00
34243;BME280;20504;43.214;27.920;2023-04-10T02:04:57;103232.59;;;10.82;100.00
34243;BME280;20504;43.214;27.920;2023-04-10T02:08:01;103230.75;;;10.84;100.00
34243;BME280;20504;43.214;27.920;2023-04-10T02:10:53;103234.03;;;10.95;100.00
34243;BME280;20504;43.214;27.920;2023-04-10T02:13:45;103203.75;;;11.04;100.00
34243;BME280;20504;43.214;27.920;2023-04-10T02:16:15;103171.72;;;11.10;100.00
34243;BME280;20504;43.214;27.920;2023-04-10T02:18:44;103137.66;;;11.26;100.00
34243;BME280;20504;43.214;27.920;2023-04-10T02:21:10;103110.97;;;11.30;100.00
34243;BME280;20504;43.214;27.920;2023-04-10T02:23:36;103008.31;;;10.95;100.00
34243;BME280;20504;43.214;27.920;2023-04-10T02:26:06;103050.44;;;11.41;100.00
34243;BME280;20504;43.214;27.920;2023-04-10T02:28:33;102964.97;;;11.26;100.00
34243;BME280;20504;43.214;27.920;2023-04-10T02:30:59;102939.66;;;11.12;100.00
34243;BME280;20504;43.214;27.920;2023-04-10T02:33:26;102962.69;;;11.43;100.00
34243;BME280;20504;43.214;27.920;2023-04-10T02:35:54;102943.56;;;11.30;100.00
34243;BME280;20504;43.214;27.920;2023-04-10T02:38:19;102962.59;;;11.15;100.00
34243;BME280;20504;43.214;27.920;2023-04-10T02:40:45;102980.56;;;11.07;100.00
34243;BME280;20504;43.214;27.920;2023-04-10T02:43:11;103001.66;;;11.11;100.00
34243;BME280;20504;43.214;27.920;2023-04-10T02:45:36;103012.78;;;10.93;100.00
34243;BME280;20504;43.214;27.920;2023-04-10T02:48:05;103058.50;;;11.06;100.00
34243;BME280;20504;43.214;27.920;2023-04-10T02:50:39;103054.66;;;10.83;100.00
34243;BME280;20504;43.214;27.920;2023-04-10T02:53:12;103099.38;;;11.00;100.00
34243;BME280;20504;43.214;27.920;2023-04-10T02:55:37;103110.97;;;10.96;100.00
34243;BME280;20504;43.214;27.920;2023-04-10T02:58:03;103130.69;;;10.86;100.00
34243;BME280;20504;43.214;27.920;2023-04-10T03:00:49;103147.13;;;11.02;100.00
34243;BME280;20504;43.214;27.920;2023-04-10T03:03:17;103151.72;;;10.95;100.00
34243;BME280;20504;43.214;27.920;2023-04-10T03:05:43;103168.34;;;11.03;100.00
34243;BME280;20504;43.214;27.920;2023-04-10T03:08:12;103168.72;;;10.88;100.00
34243;BME280;20504;43.214;27.920;2023-04-10T03:10:37;103202.75;;;11.08;100.00
34243;BME280;20504;43.214;27.920;2023-04-10T03:13:03;103207.16;;;11.09;100.00
34243;BME280;20504;43.214;27.920;2023-04-10T03:15:28;103198.47;;;11.02;100.00
34243;BME280;20504;43.214;27.920;2023-04-10T03:17:54;103225.97;;;11.00;100.00
34243;BME280;20504;43.214;27.920;2023-04-10T03:20:19;103226.22;;;10.89;100.00
34243;BME280;20504;43.214;27.920;2023-04-10T03:22:48;103216.53;;;10.86;100.00
34243;BME280;20504;43.214;27.920;2023-04-10T03:27:47;103258.94;;;10.89;100.00
34243;BME280;20504;43.214;27.920;2023-04-10T03:30:12;103239.78;;;10.75;100.00
34243;BME280;20504;43.214;27.920;2023-04-10T03:32:38;103276.47;;;10.98;100.00
34243;BME280;20504;43.214;27.920;2023-04-10T03:35:06;103280.81;;;11.02;100.00
34243;BME280;20504;43.214;27.920;2023-04-10T03:37:32;103278.66;;;10.78;100.00
34243;BME280;20504;43.214;27.920;2023-04-10T03:40:08;103324.03;;;11.09;100.00
34243;BME280;20504;43.214;27.920;2023-04-10T03:42:34;103332.88;;;11.09;100.00
34243;BME280;20504;43.214;27.920;2023-04-10T03:45:00;103320.34;;;11.14;100.00
34243;BME280;20504;43.214;27.920;2023-04-10T03:47:29;103322.69;;;11.28;100.00
34243;BME280;20504;43.214;27.920;2023-04-10T03:49:55;103304.19;;;11.25;100.00
34243;BME280;20504;43.214;27.920;2023-04-10T03:52:20;103307.13;;;11.50;100.00
34243;BME280;20504;43.214;27.920;2023-04-10T03:54:46;103255.19;;;11.37;100.00
34243;BME280;20504;43.214;27.920;2023-04-10T03:59:37;103237.09;;;11.51;100.00
34243;BME280;20504;43.214;27.920;2023-04-10T04:02:03;103249.09;;;11.67;100.00
34243;BME280;20504;43.214;27.920;2023-04-10T04:04:28;103259.81;;;11.98;100.00
34243;BME280;20504;43.214;27.920;2023-04-10T04:06:55;103234.63;;;12.11;100.00
34243;BME280;20504;43.214;27.920;2023-04-10T04:09:20;103235.41;;;12.15;100.00
34243;BME280;20504;43.214;27.920;2023-04-10T04:11:52;103195.66;;;12.10;100.00
34243;BME280;20504;43.214;27.920;2023-04-10T04:14:19;103187.44;;;12.18;100.00
34243;BME280;20504;43.214;27.920;2023-04-10T04:16:45;103164.53;;;12.42;100.00
34243;BME280;20504;43.214;27.920;2023-04-10T04:19:11;103095.06;;;12.22;100.00
34243;BME280;20504;43.214;27.920;2023-04-10T04:21:36;103131.41;;;12.52;100.00
34243;BME280;20504;43.214;27.920;2023-04-10T04:24:02;103028.31;;;12.01;100.00
34243;BME280;20504;43.214;27.920;2023-04-10T04:26:27;103065.94;;;12.45;100.00
34243;BME280;20504;43.214;27.920;2023-04-10T04:29:05;103055.63;;;12.62;100.00
34243;BME280;20504;43.214;27.920;2023-04-10T04:31:31;103022.66;;;12.66;100.00
34243;BME280;20504;43.214;27.920;2023-04-10T04:34:00;103017.94;;;12.74;100.00
34243;BME280;20504;43.214;27.920;2023-04-10T04:36:26;102980.50;;;12.79;100.00
34243;BME280;20504;43.214;27.920;2023-04-10T04:38:53;102970.00;;;12.99;100.00
34243;BME280;20504;43.214;27.920;2023-04-10T04:41:18;102930.09;;;12.98;100.00
34243;BME280;20504;43.214;27.920;2023-04-10T04:43:44;102903.75;;;13.14;100.00
34243;BME280;20504;43.214;27.920;2023-04-10T04:46:11;102881.13;;;13.02;100.00
34243;BME280;20504;43.214;27.920;2023-04-10T04:48:37;102847.50;;;12.98;100.00
34243;BME280;20504;43.214;27.920;2023-04-10T04:51:02;102826.84;;;13.04;100.00
34243;BME280;20504;43.214;27.920;2023-04-10T04:53:28;102761.38;;;12.76;100.00
34243;BME280;20504;43.214;27.920;2023-04-10T04:55:53;102764.41;;;13.12;100.00
34243;BME280;20504;43.214;27.920;2023-04-10T04:58:19;102712.78;;;12.92;100.00
34243;BME280;20504;43.214;27.920;2023-04-10T05:00:45;102740.03;;;13.22;100.00
34243;BME280;20504;43.214;27.920;2023-04-10T05:03:10;102674.50;;;12.95;100.00
34243;BME280;20504;43.214;27.920;2023-04-10T05:05:36;102703.56;;;13.45;100.00
34243;BME280;20504;43.214;27.920;2023-04-10T05:08:01;102637.13;;;13.18;100.00
34243;BME280;20504;43.214;27.920;2023-04-10T05:10:27;102653.03;;;13.42;100.00
34243;BME280;20504;43.214;27.920;2023-04-10T05:12:52;102643.69;;;13.52;100.00
34243;BME280;20504;43.214;27.920;2023-04-10T05:15:18;102617.09;;;13.71;100.00
34243;BME280;20504;43.214;27.920;2023-04-10T05:17:45;102567.78;;;13.60;100.00
34243;BME280;20504;43.214;27.920;2023-04-10T05:20:11;102543.66;;;13.63;100.00
34243;BME280;20504;43.214;27.920;2023-04-10T05:22:36;102540.78;;;13.87;100.00
34243;BME280;20504;43.214;27.920;2023-04-10T05:25:02;102501.16;;;13.98;100.00
34243;BME280;20504;43.214;27.920;2023-04-10T05:27:27;102465.09;;;13.71;100.00
34243;BME280;20504;43.214;27.920;2023-04-10T05:29:53;102421.94;;;13.81;100.00
34243;BME280;20504;43.214;27.920;2023-04-10T05:34:47;102392.25;;;14.23;100.00
34243;BME280;20504;43.214;27.920;2023-04-10T05:37:13;102365.88;;;14.00;100.00
34243;BME280;20504;43.214;27.920;2023-04-10T05:39:38;102337.31;;;14.19;100.00
34243;BME280;20504;43.214;27.920;2023-04-10T05:42:04;102295.94;;;14.11;100.00
34243;BME280;20504;43.214;27.920;2023-04-10T05:44:34;102283.56;;;14.44;100.00
34243;BME280;20504;43.214;27.920;2023-04-10T05:47:00;102240.09;;;14.58;100.00
34243;BME280;20504;43.214;27.920;2023-04-10T05:49:25;102194.81;;;14.39;100.00
34243;BME280;20504;43.214;27.920;2023-04-10T05:51:51;102176.59;;;14.47;100.00
34243;BME280;20504;43.214;27.920;2023-04-10T05:54:17;102149.59;;;14.53;100.00
34243;BME280;20504;43.214;27.920;2023-04-10T05:56:43;102127.88;;;14.75;100.00
34243;BME280;20504;43.214;27.920;2023-04-10T05:59:08;102102.09;;;14.90;100.00
34243;BME280;20504;43.214;27.920;2023-04-10T06:01:34;102066.91;;;14.98;100.00
34243;BME280;20504;43.214;27.920;2023-04-10T06:03:59;102031.50;;;14.94;100.00
34243;BME280;20504;43.214;27.920;2023-04-10T06:06:26;101975.31;;;14.96;100.00
34243;BME280;20504;43.214;27.920;2023-04-10T06:08:52;101950.13;;;15.00;100.00
34243;BME280;20504;43.214;27.920;2023-04-10T06:11:17;101934.66;;;15.05;100.00
34243;BME280;20504;43.214;27.920;2023-04-10T06:13:43;101900.88;;;15.04;100.00
34243;BME280;20504;43.214;27.920;2023-04-10T06:16:08;101875.44;;;14.68;100.00
34243;BME280;20504;43.214;27.920;2023-04-10T06:18:34;101868.69;;;14.63;100.00
34243;BME280;20504;43.214;27.920;2023-04-10T06:21:00;101835.41;;;14.68;100.00
34243;BME280;20504;43.214;27.920;2023-04-10T06:23:28;101863.31;;;15.07;100.00
34243;BME280;20504;43.214;27.920;2023-04-10T06:25:54;101821.97;;;14.84;100.00
34243;BME280;20504;43.214;27.920;2023-04-10T06:28:20;101821.31;;;15.09;100.00
34243;BME280;20504;43.214;27.920;2023-04-10T06:30:45;101801.34;;;14.86;100.00
34243;BME280;20504;43.214;27.920;2023-04-10T06:33:11;101791.94;;;15.09;100.00
34243;BME280;20504;43.214;27.920;2023-04-10T06:35:36;101767.69;;;15.12;100.00
34243;BME280;20504;43.214;27.920;2023-04-10T06:38:03;101733.50;;;15.17;100.00
34243;BME280;20504;43.214;27.920;2023-04-10T06:40:28;101508.28;;;15.40;100.00
34243;BME280;20504;43.214;27.920;2023-04-10T06:42:55;101467.88;;;15.58;100.00
34243;BME280;20504;43.214;27.920;2023-04-10T06:45:21;101417.06;;;15.58;100.00
34243;BME280;20504;43.214;27.920;2023-04-10T06:47:46;101368.59;;;15.88;100.00
34243;BME280;20504;43.214;27.920;2023-04-10T06:50:12;101358.81;;;15.99;100.00
34243;BME280;20504;43.214;27.920;2023-04-10T06:52:37;101261.09;;;16.18;100.00
34243;BME280;20504;43.214;27.920;2023-04-10T06:55:03;101217.81;;;16.35;100.00
34243;BME280;20504;43.214;27.920;2023-04-10T06:57:29;101211.25;;;16.39;100.00
34243;BME280;20504;43.214;27.920;2023-04-10T06:59:55;101194.94;;;16.42;100.00
34243;BME280;20504;43.214;27.920;2023-04-10T07:02:20;101142.13;;;16.33;100.00
34243;BME280;20504;43.214;27.920;2023-04-10T07:04:46;101131.06;;;16.26;100.00
34243;BME280;20504;43.214;27.920;2023-04-10T07:07:11;101095.97;;;15.96;100.00
34243;BME280;20504;43.214;27.920;2023-04-10T07:09:38;101014.41;;;16.24;100.00
34243;BME280;20504;43.214;27.920;2023-04-10T07:12:04;100972.94;;;16.61;100.00
34243;BME280;20504;43.214;27.920;2023-04-10T07:14:31;100907.28;;;16.35;100.00
34243;BME280;20504;43.214;27.920;2023-04-10T07:16:58;100830.75;;;16.64;100.00
34243;BME280;20504;43.214;27.920;2023-04-10T07:19:24;100751.53;;;16.62;100.00
34243;BME280;20504;43.214;27.920;2023-04-10T07:21:49;100680.34;;;16.90;100.00
34243;BME280;20504;43.214;27.920;2023-04-10T07:24:16;100592.75;;;16.71;100.00
34243;BME280;20504;43.214;27.920;2023-04-10T07:26:45;100487.22;;;16.83;100.00
34243;BME280;20504;43.214;27.920;2023-04-10T07:29:11;100419.09;;;17.15;100.00
34243;BME280;20504;43.214;27.920;2023-04-10T07:31:38;100337.22;;;16.93;100.00
34243;BME280;20504;43.214;27.920;2023-04-10T07:34:03;100295.22;;;16.84;100.00
34243;BME280;20504;43.214;27.920;2023-04-10T07:36:29;100251.16;;;17.06;100.00
34243;BME280;20504;43.214;27.920;2023-04-10T07:38:56;100156.94;;;17.10;100.00
34243;BME280;20504;43.214;27.920;2023-04-10T07:41:21;100102.25;;;17.48;100.00
34243;BME280;20504;43.214;27.920;2023-04-10T07:43:48;100319.81;;;17.81;100.00
34243;BME280;20504;43.214;27.920;2023-04-10T07:46:15;100236.44;;;18.10;100.00
34243;BME280;20504;43.214;27.920;2023-04-10T07:48:41;100157.72;;;18.45;100.00
34243;BME280;20504;43.214;27.920;2023-04-10T07:51:08;100027.31;;;18.08;100.00
34243;BME280;20504;43.214;27.920;2023-04-10T07:53:37;99938.91;;;18.07;100.00
34243;BME280;20504;43.214;27.920;2023-04-10T07:56:03;99801.56;;;18.20;100.00
34243;BME280;20504;43.214;27.920;2023-04-10T07:58:28;99700.59;;;17.94;100.00
34243;BME280;20504;43.214;27.920;2023-04-10T08:00:55;99557.91;;;17.99;100.00
34243;BME280;20504;43.214;27.920;2023-04-10T08:03:21;99487.19;;;17.59;100.00
34243;BME280;20504;43.214;27.920;2023-04-10T08:05:47;99358.22;;;17.54;100.00
34243;BME280;20504;43.214;27.920;2023-04-10T08:08:15;99237.84;;;17.75;100.00
34243;BME280;20504;43.214;27.920;2023-04-10T08:10:40;99172.41;;;17.84;100.00
34243;BME280;20504;43.214;27.920;2023-04-10T08:13:07;99183.09;;;17.93;100.00
34243;BME280;20504;43.214;27.920;2023-04-10T08:15:32;99155.50;;;17.84;100.00
34243;BME280;20504;43.214;27.920;2023-04-10T08:17:58;99140.31;;;18.22;100.00
34243;BME280;20504;43.214;27.920;2023-04-10T08:20:25;99162.38;;;17.87;100.00
34243;BME280;20504;43.214;27.920;2023-04-10T08:23:01;99071.47;;;18.29;100.00
34243;BME280;20504;43.214;27.920;2023-04-10T08:25:26;99138.44;;;18.23;100.00
34243;BME280;20504;43.214;27.920;2023-04-10T08:27:57;99158.22;;;18.22;100.00
34243;BME280;20504;43.214;27.920;2023-04-10T08:30:32;99017.41;;;18.32;100.00
34243;BME280;20504;43.214;27.920;2023-04-10T08:32:59;98999.72;;;18.38;100.00
34243;BME280;20504;43.214;27.920;2023-04-10T08:35:25;98968.53;;;18.52;100.00
34243;BME280;20504;43.214;27.920;2023-04-10T08:37:51;98961.31;;;18.67;100.00
34243;BME280;20504;43.214;27.920;2023-04-10T08:40:16;98859.66;;;18.28;100.00
34243;BME280;20504;43.214;27.920;2023-04-10T08:42:43;98806.44;;;18.31;100.00
34243;BME280;20504;43.214;27.920;2023-04-10T08:45:09;98680.59;;;18.15;100.00
34243;BME280;20504;43.214;27.920;2023-04-10T08:47:37;98551.00;;;17.87;100.00
34243;BME280;20504;43.214;27.920;2023-04-10T08:50:09;98461.31;;;17.96;100.00
34243;BME280;20504;43.214;27.920;2023-04-10T08:52:41;98446.56;;;18.06;100.00
34243;BME280;20504;43.214;27.920;2023-04-10T08:55:08;98388.38;;;17.72;100.00
34243;BME280;20504;43.214;27.920;2023-04-10T08:57:37;98466.31;;;18.33;100.00
34243;BME280;20504;43.214;27.920;2023-04-10T09:00:04;98466.16;;;18.07;100.00
34243;BME280;20504;43.214;27.920;2023-04-10T09:02:30;98534.59;;;18.03;100.00
34243;BME280;20504;43.214;27.920;2023-04-10T09:04:59;98562.19;;;17.97;100.00
34243;BME280;20504;43.214;27.920;2023-04-10T09:07:27;98634.03;;;18.01;100.00
34243;BME280;20504;43.214;27.920;2023-04-10T09:09:52;98709.00;;;18.09;100.00
34243;BME280;20504;43.214;27.920;2023-04-10T09:12:18;98746.13;;;18.06;100.00
34243;BME280;20504;43.214;27.920;2023-04-10T09:14:43;98750.59;;;17.84;100.00
34243;BME280;20504;43.214;27.920;2023-04-10T09:17:13;98720.97;;;18.28;100.00
34243;BME280;20504;43.214;27.920;2023-04-10T09:19:40;98724.66;;;18.06;100.00
34243;BME280;20504;43.214;27.920;2023-04-10T09:22:06;98602.13;;;17.49;100.00
34243;BME280;20504;43.214;27.920;2023-04-10T09:24:35;98517.91;;;17.79;100.00
34243;BME280;20504;43.214;27.920;2023-04-10T09:27:04;98518.47;;;17.53;100.00
34243;BME280;20504;43.214;27.920;2023-04-10T09:29:43;98533.72;;;17.53;100.00
34243;BME280;20504;43.214;27.920;2023-04-10T09:32:11;98573.69;;;17.48;100.00
34243;BME280;20504;43.214;27.920;2023-04-10T09:35:08;98582.34;;;17.86;100.00
34243;BME280;20504;43.214;27.920;2023-04-10T09:37:35;98746.81;;;17.78;100.00
34243;BME280;20504;43.214;27.920;2023-04-10T09:40:01;98888.19;;;17.47;100.00
34243;BME280;20504;43.214;27.920;2023-04-10T09:42:39;98968.25;;;17.73;100.00
34243;BME280;20504;43.214;27.920;2023-04-10T09:50:38;99306.84;;;18.43;100.00
34243;BME280;20504;43.214;27.920;2023-04-10T09:53:12;99394.44;;;18.36;100.00
34243;BME280;20504;43.214;27.920;2023-04-10T09:56:00;99238.69;;;18.07;100.00
34243;BME280;20504;43.214;27.920;2023-04-10T09:58:28;99337.75;;;18.08;100.00
34243;BME280;20504;43.214;27.920;2023-04-10T10:00:59;99351.44;;;17.82;100.00
34243;BME280;20504;43.214;27.920;2023-04-10T10:12:02;99202.72;;;18.16;100.00
34243;BME280;20504;43.214;27.920;2023-04-10T10:20:38;99178.84;;;18.44;100.00
34243;BME280;20504;43.214;27.920;2023-04-10T10:23:18;99133.69;;;18.10;100.00
34243;BME280;20504;43.214;27.920;2023-04-10T10:26:05;99041.47;;;18.40;100.00
34243;BME280;20504;43.214;27.920;2023-04-10T10:28:32;99120.91;;;18.50;100.00
34243;BME280;20504;43.214;27.920;2023-04-10T10:34:53;98775.66;;;18.27;100.00
34243;BME280;20504;43.214;27.920;2023-04-10T10:37:22;98795.72;;;17.95;100.00
34243;BME280;20504;43.214;27.920;2023-04-10T10:42:52;98702.41;;;17.91;100.00
34243;BME280;20504;43.214;27.920;2023-04-10T10:45:56;98792.00;;;18.54;100.00
34243;BME280;20504;43.214;27.920;2023-04-10T10:48:22;98858.88;;;17.83;100.00
34243;BME280;20504;43.214;27.920;2023-04-10T10:50:56;98998.75;;;18.24;100.00
34243;BME280;20504;43.214;27.920;2023-04-10T10:53:42;99054.25;;;18.38;100.00
34243;BME280;20504;43.214;27.920;2023-04-10T10:56:37;99050.91;;;18.36;100.00
34243;BME280;20504;43.214;27.920;2023-04-10T11:02:17;99107.72;;;18.40;100.00
34243;BME280;20504;43.214;27.920;2023-04-10T11:04:47;99141.88;;;18.69;100.00
34243;BME280;20504;43.214;27.920;2023-04-10T11:07:15;99142.91;;;18.97;100.00
34243;BME280;20504;43.214;27.920;2023-04-10T11:09:52;99071.28;;;19.04;100.00
34243;BME280;20504;43.214;27.920;2023-04-10T11:12:24;99074.44;;;18.49;100.00
34243;BME280;20504;43.214;27.920;2023-04-10T11:15:01;99059.44;;;18.55;100.00
34243;BME280;20504;43.214;27.920;2023-04-10T11:17:55;99029.03;;;17.95;100.00
34243;BME280;20504;43.214;27.920;2023-04-10T11:20:20;98978.06;;;17.95;100.00
34243;BME280;20504;43.214;27.920;2023-04-10T11:23:09;98926.00;;;18.19;100.00
34243;BME280;20504;43.214;27.920;2023-04-10T11:26:13;98784.13;;;18.09;100.00
34243;BME280;20504;43.214;27.920;2023-04-10T11:31:38;98544.28;;;17.76;100.00
34243;BME280;20504;43.214;27.920;2023-04-10T11:34:05;98591.50;;;17.98;100.00
34243;BME280;20504;43.214;27.920;2023-04-10T11:36:33;98674.00;;;17.45;100.00
34243;BME280;20504;43.214;27.920;2023-04-10T11:39:04;98662.59;;;17.07;100.00
34243;BME280;20504;43.214;27.920;2023-04-10T11:41:33;98697.88;;;17.11;100.00
34243;BME280;20504;43.214;27.920;2023-04-10T11:44:02;98794.63;;;16.93;100.00
34243;BME280;20504;43.214;27.920;2023-04-10T11:46:28;98868.81;;;17.07;100.00
34243;BME280;20504;43.214;27.920;2023-04-10T11:48:59;99012.84;;;17.20;100.00
34243;BME280;20504;43.214;27.920;2023-04-10T11:51:25;99173.41;;;17.21;100.00
34243;BME280;20504;43.214;27.920;2023-04-10T11:54:17;99259.56;;;16.94;100.00
34243;BME280;20504;43.214;27.920;2023-04-10T11:59:22;99446.47;;;17.47;100.00
34243;BME280;20504;43.214;27.920;2023-04-10T12:01:49;99552.19;;;17.45;100.00
34243;BME280;20504;43.214;27.920;2023-04-10T12:04:20;99613.38;;;17.58;100.00
34243;BME280;20504;43.214;27.920;2023-04-10T12:06:50;99656.66;;;17.12;100.00
34243;BME280;20504;43.214;27.920;2023-04-10T12:09:20;99640.56;;;17.12;100.00
34243;BME280;20504;43.214;27.920;2023-04-10T12:14:21;99749.34;;;17.31;100.00
34243;BME280;20504;43.214;27.920;2023-04-10T12:16:54;99825.16;;;17.58;100.00
34243;BME280;20504;43.214;27.920;2023-04-10T12:19:20;99924.41;;;17.40;100.00
34243;BME280;20504;43.214;27.920;2023-04-10T12:21:45;99980.63;;;17.49;100.00
34243;BME280;20504;43.214;27.920;2023-04-10T12:24:12;99961.50;;;17.09;100.00
34243;BME280;20504;43.214;27.920;2023-04-10T12:26:37;99920.53;;;17.34;100.00
34243;BME280;20504;43.214;27.920;2023-04-10T12:29:03;99909.63;;;17.62;100.00
34243;BME280;20504;43.214;27.920;2023-04-10T12:31:35;99881.16;;;17.87;100.00
34243;BME280;20504;43.214;27.920;2023-04-10T12:34:02;99855.75;;;18.07;100.00
34243;BME280;20504;43.214;27.920;2023-04-10T12:36:31;99838.94;;;17.97;100.00
34243;BME280;20504;43.214;27.920;2023-04-10T12:39:03;99811.25;;;17.88;100.00
34243;BME280;20504;43.214;27.920;2023-04-10T12:41:32;99756.09;;;17.94;100.00
34243;BME280;20504;43.214;27.920;2023-04-10T12:44:11;99700.25;;;17.81;100.00
34243;BME280;20504;43.214;27.920;2023-04-10T12:46:39;99651.97;;;18.13;100.00
34243;BME280;20504;43.214;27.920;2023-04-10T12:54:06;99533.09;;;18.13;100.00
34243;BME280;20504;43.214;27.920;2023-04-10T12:56:40;99437.47;;;18.20;100.00
34243;BME280;20504;43.214;27.920;2023-04-10T12:59:06;99413.78;;;17.84;100.00
34243;BME280;20504;43.214;27.920;2023-04-10T13:01:31;99364.72;;;17.76;100.00
34243;BME280;20504;43.214;27.920;2023-04-10T13:03:57;99312.19;;;17.90;100.00
34243;BME280;20504;43.214;27.920;2023-04-10T13:06:23;99263.88;;;17.98;100.00
34243;BME280;20504;43.214;27.920;2023-04-10T13:08:48;99255.72;;;17.83;100.00
34243;BME280;20504;43.214;27.920;2023-04-10T13:11:16;99195.84;;;17.91;100.00
34243;BME280;20504;43.214;27.920;2023-04-10T13:13:42;99144.25;;;17.89;100.00
34243;BME280;20504;43.214;27.920;2023-04-10T13:16:08;99152.44;;;18.33;100.00
34243;BME280;20504;43.214;27.920;2023-04-10T13:18:36;99139.09;;;18.02;100.00
34243;BME280;20504;43.214;27.920;2023-04-10T13:21:03;99133.91;;;18.00;100.00
34243;BME280;20504;43.214;27.920;2023-04-10T13:23:29;99177.66;;;18.01;100.00
34243;BME280;20504;43.214;27.920;2023-04-10T13:25:54;99195.31;;;17.95;100.00
34243;BME280;20504;43.214;27.920;2023-04-10T13:28:21;99202.34;;;17.96;100.00
34243;BME280;20504;43.214;27.920;2023-04-10T13:30:47;99180.47;;;17.84;100.00
34243;BME280;20504;43.214;27.920;2023-04-10T13:33:12;99170.75;;;17.83;100.00
34243;BME280;20504;43.214;27.920;2023-04-10T13:35:38;99162.84;;;17.90;100.00
34243;BME280;20504;43.214;27.920;2023-04-10T13:38:07;99144.13;;;17.82;100.00
34243;BME280;20504;43.214;27.920;2023-04-10T13:40:33;99148.78;;;17.88;100.00